Time;durP1;ratioP1;P1;durP2;ratioP2;P2;SDS_P1;SDS_P2;PMS_P1;PMS_P2;Temp;Humidity;BMP_temperature;BMP_pressure;BME280_temperature;BME280_humidity;BME280_pressure;Samples;Min_cycle;Max_cycle;Signal;HPM_P1;HPM_P2
2022/09/14 00:01:56;;;;;;;2.03;1.27;;;;;;;18.74;42.95;98620.63;5017289;28;20029;-88
2022/09/14 00:04:21;;;;;;;3.65;1.17;;;;;;;18.79;42.50;98619.09;4984837;28;20029;-88
2022/09/14 00:06:47;;;;;;;1.75;1.20;;;;;;;18.75;42.45;98609.84;5001185;28;20041;-88
2022/09/14 00:09:17;;;;;;;2.17;1.20;;;;;;;18.78;43.00;98614.78;5000924;28;20053;-89
2022/09/14 00:11:43;;;;;;;3.70;1.20;;;;;;;18.77;42.75;98626.38;4984375;28;20412;-88
2022/09/14 00:14:08;;;;;;;2.40;1.30;;;;;;;18.73;42.97;98633.00;5016864;28;20029;-86
2022/09/14 00:16:36;;;;;;;5.10;1.40;;;;;;;18.60;42.27;98638.00;4984302;28;20112;-86
2022/09/14 00:19:05;;;;;;;3.17;1.50;;;;;;;18.66;42.30;98632.06;5016975;28;20032;-89
2022/09/14 00:21:37;;;;;;;1.77;1.20;;;;;;;18.69;42.23;98625.56;5016197;28;20112;-86
2022/09/14 00:24:03;;;;;;;5.22;1.40;;;;;;;18.57;42.51;98641.00;4980458;28;20041;-88
2022/09/14 00:26:29;;;;;;;3.30;2.20;;;;;;;18.48;42.38;98618.22;4996765;28;20022;-87
2022/09/14 00:28:56;;;;;;;3.92;2.00;;;;;;;18.55;42.59;98630.59;4996892;28;20037;-88
2022/09/14 00:31:22;;;;;;;3.90;2.10;;;;;;;18.57;42.38;98635.72;4980622;28;20061;-88
2022/09/14 00:33:48;;;;;;;4.75;2.08;;;;;;;18.55;42.38;98635.88;4996522;28;20536;-88
2022/09/14 00:36:17;;;;;;;5.10;2.13;;;;;;;18.58;42.61;98640.00;4997021;28;20087;-89
2022/09/14 00:38:42;;;;;;;4.38;2.28;;;;;;;18.62;42.84;98636.00;4980173;28;20026;-88
2022/09/14 00:41:14;;;;;;;7.82;2.22;;;;;;;18.65;42.94;98635.69;4996757;28;20044;-90
2022/09/14 00:44:01;;;;;;;3.95;2.00;;;;;;;18.70;42.33;98633.34;4980480;28;20026;-89
2022/09/14 00:46:48;;;;;;;3.92;1.90;;;;;;;18.74;42.69;98639.13;4979877;28;20069;-88
2022/09/14 00:49:21;;;;;;;6.25;2.03;;;;;;;18.72;42.69;98635.81;5012437;28;20052;-87
2022/09/14 00:52:04;;;;;;;4.10;2.00;;;;;;;18.70;43.21;98641.25;4996531;28;20104;-88
2022/09/14 00:54:29;;;;;;;6.00;2.00;;;;;;;18.65;43.50;98646.25;5012879;28;20041;-88
2022/09/14 00:56:56;;;;;;;5.15;2.20;;;;;;;18.63;43.72;98645.59;4979719;28;20136;-88
2022/09/14 00:59:25;;;;;;;3.08;1.85;;;;;;;18.62;43.99;98641.31;4980048;28;20037;-89
2022/09/14 01:01:50;;;;;;;7.10;2.05;;;;;;;18.53;44.30;98639.69;4996232;28;20117;-88
2022/09/14 01:04:16;;;;;;;4.05;2.17;;;;;;;18.45;44.38;98635.25;4979944;28;20034;-88
2022/09/14 01:06:47;;;;;;;4.57;1.95;;;;;;;18.44;44.69;98652.13;5012946;28;20029;-88
2022/09/14 01:09:37;;;;;;;6.05;2.15;;;;;;;18.41;44.60;98645.34;5013790;28;20476;-88
2022/09/14 01:12:22;;;;;;;6.18;2.10;;;;;;;18.37;44.73;98653.78;5012403;28;20026;-88
2022/09/14 01:15:05;;;;;;;3.90;2.03;;;;;;;18.32;44.69;98648.19;5012971;28;20050;-81
2022/09/14 01:17:49;;;;;;;3.92;2.00;;;;;;;18.30;44.88;98647.53;4995881;28;20030;-81
2022/09/14 01:20:18;;;;;;;4.03;1.80;;;;;;;18.19;45.26;98646.06;5013822;28;20037;-80
2022/09/14 01:22:58;;;;;;;3.85;1.88;;;;;;;18.12;45.25;98648.53;5011925;28;20387;-80
2022/09/14 01:25:49;;;;;;;5.97;1.73;;;;;;;18.08;45.32;98645.41;4995865;28;20030;-81
2022/09/14 01:28:22;;;;;;;3.65;2.05;;;;;;;18.02;45.46;98635.50;5013443;28;20034;-81
2022/09/14 01:30:48;;;;;;;4.28;1.80;;;;;;;17.98;45.83;98638.66;4979722;28;20049;-81
2022/09/14 01:33:16;;;;;;;4.25;1.70;;;;;;;17.94;45.57;98638.16;4996040;28;20034;-81
2022/09/14 01:36:02;;;;;;;3.15;1.63;;;;;;;17.93;45.31;98633.84;4995781;28;20026;-81
2022/09/14 01:38:34;;;;;;;2.97;1.52;;;;;;;17.88;45.22;98629.09;4978032;28;20559;-80
2022/09/14 01:41:01;;;;;;;2.72;1.70;;;;;;;17.95;45.02;98636.34;4963513;28;20049;-81
2022/09/14 01:43:50;;;;;;;1.83;1.55;;;;;;;17.89;45.38;98633.38;4963417;28;20033;-81
2022/09/14 01:46:17;;;;;;;2.83;1.55;;;;;;;17.87;45.12;98635.34;4914696;29;20516;-81
2022/09/14 01:49:07;;;;;;;5.35;1.83;;;;;;;17.78;45.13;98636.31;4898483;29;20048;-82
2022/09/14 01:51:45;;;;;;;2.40;1.60;;;;;;;17.75;45.48;98633.19;4899369;29;20044;-81
2022/09/14 01:54:36;;;;;;;2.47;1.60;;;;;;;17.68;45.76;98631.22;4882956;29;20051;-81
2022/09/14 01:57:03;;;;;;;3.40;1.40;;;;;;;17.68;45.57;98627.78;4913593;29;20036;-82
2022/09/14 01:59:30;;;;;;;6.68;1.40;;;;;;;17.67;46.12;98631.38;4914244;29;20417;-81
2022/09/14 02:02:08;;;;;;;4.15;1.63;;;;;;;17.64;45.45;98629.88;4882627;29;20042;-81
2022/09/14 02:04:36;;;;;;;4.20;1.60;;;;;;;17.59;45.49;98634.84;4898535;29;20054;-81
2022/09/14 02:07:01;;;;;;;5.55;1.92;;;;;;;17.57;45.46;98636.84;4914428;29;20553;-81
2022/09/14 02:09:27;;;;;;;2.55;1.80;;;;;;;17.60;45.99;98639.16;4882983;29;20036;-80
2022/09/14 02:11:53;;;;;;;2.85;1.73;;;;;;;17.51;46.42;98629.56;4898182;29;20040;-81
2022/09/14 02:14:20;;;;;;;3.95;1.80;;;;;;;17.56;46.05;98629.91;4882862;29;20172;-81
2022/09/14 02:16:45;;;;;;;2.47;1.58;;;;;;;17.56;46.38;98639.63;4898774;29;20048;-81
2022/09/14 02:19:12;;;;;;;2.88;1.40;;;;;;;17.50;46.39;98633.19;4898311;29;20047;-82
2022/09/14 02:21:38;;;;;;;3.35;1.40;;;;;;;17.52;46.29;98637.31;4898570;29;20071;-81
2022/09/14 02:24:04;;;;;;;5.57;2.00;;;;;;;17.52;46.28;98639.97;4949935;28;20084;-81
2022/09/14 02:26:29;;;;;;;5.05;1.67;;;;;;;17.55;45.95;98633.50;4961962;28;20067;-81
2022/09/14 02:28:55;;;;;;;2.38;1.55;;;;;;;17.50;46.14;98631.38;4978844;28;20494;-81
2022/09/14 02:31:30;;;;;;;4.30;1.80;;;;;;;17.49;46.55;98631.53;4979012;28;20036;-81
2022/09/14 02:34:07;;;;;;;3.55;1.90;;;;;;;17.46;45.93;98629.25;4994843;28;20038;-81
2022/09/14 02:36:39;;;;;;;2.97;1.70;;;;;;;17.42;46.04;98627.91;4978617;28;20049;-81
2022/09/14 02:39:30;;;;;;;2.97;1.33;;;;;;;17.36;46.70;98627.59;4994920;28;20493;-82
2022/09/14 02:42:24;;;;;;;2.55;1.42;;;;;;;17.33;46.81;98641.09;4995286;28;20026;-80
2022/09/14 02:45:02;;;;;;;5.22;1.50;;;;;;;17.32;46.87;98638.63;4951596;29;20035;-81
2022/09/14 02:47:35;;;;;;;3.53;1.50;;;;;;;17.22;46.92;98636.13;4951991;29;20075;-81
2022/09/14 02:50:23;;;;;;;2.28;1.45;;;;;;;17.19;46.80;98639.09;4951732;29;20484;-81
2022/09/14 02:53:12;;;;;;;4.40;1.45;;;;;;;17.11;46.95;98629.34;4935214;29;20099;-81
2022/09/14 02:55:49;;;;;;;2.25;1.42;;;;;;;17.05;47.04;98624.72;4920574;29;20130;-80
2022/09/14 02:58:15;;;;;;;2.65;1.50;;;;;;;17.06;47.39;98625.53;4905618;29;20058;-81
2022/09/14 03:00:45;;;;;;;2.20;1.40;;;;;;;17.02;47.44;98630.31;4920266;29;20079;-80
2022/09/14 03:03:11;;;;;;;3.90;1.60;;;;;;;16.97;47.57;98632.63;4920577;29;20047;-80
2022/09/14 03:05:37;;;;;;;3.83;1.60;;;;;;;16.97;47.66;98629.97;4904072;29;20462;-81
2022/09/14 03:08:03;;;;;;;3.10;1.50;;;;;;;16.97;47.82;98633.44;4920968;29;20043;-81
2022/09/14 03:10:28;;;;;;;4.03;1.30;;;;;;;16.96;47.74;98629.13;4923597;29;20070;-80
2022/09/14 03:12:54;;;;;;;1.98;1.30;;;;;;;16.96;47.90;98636.22;4923582;29;20038;-80
2022/09/14 03:15:20;;;;;;;2.35;1.33;;;;;;;17.04;48.38;98632.78;4923331;29;20078;-80
2022/09/14 03:17:46;;;;;;;1.63;1.23;;;;;;;17.03;48.38;98637.25;4923048;29;20055;-81
2022/09/14 03:20:16;;;;;;;3.08;1.30;;;;;;;17.02;48.18;98625.03;4955561;28;20051;-81
2022/09/14 03:22:42;;;;;;;2.38;1.40;;;;;;;16.98;48.02;98619.28;4997044;28;20045;-81
2022/09/14 03:25:08;;;;;;;3.55;1.40;;;;;;;16.99;47.74;98628.00;5001481;28;20025;-81
2022/09/14 03:27:34;;;;;;;2.85;1.48;;;;;;;16.91;47.85;98627.97;5018177;28;20030;-81
2022/09/14 03:29:59;;;;;;;2.50;1.42;;;;;;;16.94;47.99;98646.94;5001177;28;20026;-81
2022/09/14 03:32:24;;;;;;;1.48;1.20;;;;;;;16.94;47.99;98633.75;5001664;28;20429;-81
2022/09/14 03:34:50;;;;;;;2.15;1.40;;;;;;;16.97;48.03;98645.78;5001237;28;20087;-80
2022/09/14 03:37:17;;;;;;;5.15;1.50;;;;;;;16.92;48.15;98634.88;4984642;28;20038;-81
2022/09/14 03:39:43;;;;;;;4.10;1.80;;;;;;;16.88;48.35;98633.56;5002767;28;20124;-80
2022/09/14 03:42:09;;;;;;;2.53;1.60;;;;;;;16.93;48.30;98649.72;5002022;28;20060;-79
2022/09/14 03:44:34;;;;;;;2.72;1.65;;;;;;;16.95;48.10;98648.59;5000943;28;20072;-81
2022/09/14 03:47:00;;;;;;;3.35;1.40;;;;;;;16.90;48.18;98644.78;5000469;28;20098;-82
2022/09/14 03:49:27;;;;;;;3.28;1.50;;;;;;;16.86;48.19;98646.91;4993681;28;20441;-81
2022/09/14 03:51:54;;;;;;;3.67;1.50;;;;;;;16.83;48.31;98652.47;4994535;28;20117;-80
2022/09/14 03:54:20;;;;;;;2.78;1.60;;;;;;;16.78;48.31;98650.31;4985798;28;20038;-83
2022/09/14 03:56:45;;;;;;;3.17;1.40;;;;;;;16.83;48.44;98655.91;4958736;28;20056;-82
2022/09/14 03:59:10;;;;;;;2.28;1.38;;;;;;;16.85;48.26;98653.13;4991169;28;20411;-82
2022/09/14 04:01:37;;;;;;;1.98;1.48;;;;;;;16.87;48.31;98648.53;4975673;28;20031;-87
2022/09/14 04:04:02;;;;;;;2.25;1.50;;;;;;;17.07;47.85;98649.09;4943420;28;20035;-86
2022/09/14 04:06:28;;;;;;;2.70;1.40;;;;;;;17.46;46.88;98651.16;4960674;28;20094;-86
2022/09/14 04:08:54;;;;;;;1.85;1.35;;;;;;;17.97;45.82;98660.78;4976336;28;20034;-88
2022/09/14 04:11:24;;;;;;;3.30;1.60;;;;;;;18.48;44.32;98655.22;4960307;28;20458;-86
2022/09/14 04:13:49;;;;;;;1.92;1.27;;;;;;;19.01;43.10;98639.66;4962110;28;20030;-89
2022/09/14 04:16:15;;;;;;;3.08;1.23;;;;;;;19.62;41.77;98640.59;4945050;28;20034;-84
2022/09/14 04:18:41;;;;;;;3.28;1.73;;;;;;;20.22;40.33;98651.34;4942660;28;20030;-83
2022/09/14 04:21:17;;;;;;;2.72;1.20;;;;;;;20.93;38.55;98640.28;4957754;28;20038;-85
2022/09/14 04:23:43;;;;;;;6.72;1.60;;;;;;;21.78;36.89;98649.34;4943424;28;20043;-84
2022/09/14 04:26:11;;;;;;;2.45;1.30;;;;;;;22.73;41.17;98635.66;4943228;28;20027;-78
2022/09/14 04:28:36;;;;;;;2.05;1.20;;;;;;;23.82;36.65;98647.22;4976015;28;20058;-76
2022/09/14 04:31:02;;;;;;;3.70;1.25;;;;;;;24.78;33.76;98651.19;4961025;28;20034;-77
2022/09/14 04:33:32;;;;;;;6.47;1.20;;;;;;;25.72;31.54;98643.47;4977205;28;20037;-77
2022/09/14 04:36:02;;;;;;;5.85;1.38;;;;;;;26.67;30.28;98646.97;4993535;28;20504;-76
2022/09/14 04:38:28;;;;;;;3.95;1.50;;;;;;;27.52;29.49;98659.47;4977685;28;20485;-76
2022/09/14 04:40:54;;;;;;;4.63;1.20;;;;;;;28.63;28.70;98648.09;4993961;28;20106;-78
2022/09/14 04:43:20;;;;;;;4.32;1.75;;;;;;;29.41;25.91;98648.56;4976563;28;20193;-79
2022/09/14 04:45:45;;;;;;;5.03;1.35;;;;;;;29.93;24.63;98652.09;4992518;28;20042;-85
2022/09/14 04:48:11;;;;;;;2.55;1.40;;;;;;;30.36;23.64;98647.06;4977518;28;20066;-78
2022/09/14 04:50:36;;;;;;;4.85;1.40;;;;;;;30.88;22.54;98652.03;5000208;28;20041;-79
2022/09/14 04:53:02;;;;;;;3.45;1.45;;;;;;;31.35;21.76;98653.38;4999759;28;20457;-80
2022/09/14 04:55:28;;;;;;;9.50;1.58;;;;;;;31.88;21.56;98661.69;5006429;28;20421;-77
2022/09/14 04:57:54;;;;;;;3.38;1.48;;;;;;;32.23;20.93;98652.22;4970882;28;20095;-79
2022/09/14 05:00:20;;;;;;;3.80;1.60;;;;;;;32.67;20.48;98662.72;5005444;28;20097;-82
2022/09/14 05:02:45;;;;;;;4.10;1.35;;;;;;;33.02;19.68;98668.53;4989305;28;20037;-79
2022/09/14 05:05:11;;;;;;;2.53;1.23;;;;;;;33.32;19.59;98674.06;5006333;28;20455;-83
2022/09/14 05:07:37;;;;;;;2.33;1.20;;;;;;;33.61;18.86;98670.84;5004759;28;20107;-82
2022/09/14 05:10:04;;;;;;;3.70;1.20;;;;;;;33.91;18.97;98669.25;4985574;28;20046;-85
2022/09/14 05:12:29;;;;;;;;;;;;;;;34.03;18.82;98674.38;4977649;28;20086;-82
2022/09/14 05:14:55;;;;;;;4.88;1.58;;;;;;;34.38;18.41;98665.41;4990027;28;19912;-81
2022/09/14 05:17:21;;;;;;;14.60;2.00;;;;;;;34.68;18.01;98674.53;4988317;28;20452;-83
2022/09/14 05:19:47;;;;;;;9.00;2.08;;;;;;;34.92;17.96;98663.84;4976349;28;20026;-82
2022/09/14 05:22:28;;;;;;;8.35;1.70;;;;;;;35.17;17.40;98666.69;4986931;28;20121;-85
2022/09/14 05:24:54;;;;;;;8.18;1.95;;;;;;;35.49;17.18;98666.25;5011179;28;20033;-84
2022/09/14 05:27:19;;;;;;;6.88;1.70;;;;;;;35.75;16.63;98657.88;4990871;28;20041;-82
2022/09/14 05:29:45;;;;;;;9.13;1.90;;;;;;;35.91;16.66;98661.31;4970890;28;20026;-84
2022/09/14 05:32:10;;;;;;;11.68;2.25;;;;;;;36.13;16.17;98664.34;4990783;28;20036;-86
2022/09/14 05:34:36;;;;;;;12.18;2.20;;;;;;;36.26;16.15;98664.78;4986927;28;20041;-84
2022/09/14 05:37:01;;;;;;;13.88;2.22;;;;;;;36.36;16.17;98661.97;5004614;28;20516;-85
2022/09/14 05:39:27;;;;;;;12.75;2.13;;;;;;;36.47;15.71;98666.19;4989036;28;20433;-87
2022/09/14 05:41:52;;;;;;;11.07;2.22;;;;;;;36.59;15.51;98652.19;4986957;28;20485;-85
2022/09/14 05:44:18;;;;;;;11.18;2.35;;;;;;;36.84;15.36;98667.38;4978927;28;20037;-89
2022/09/14 05:46:43;;;;;;;10.60;2.00;;;;;;;36.97;15.00;98668.56;4994693;28;20056;-83
2022/09/14 05:49:09;;;;;;;19.30;2.25;;;;;;;37.08;14.85;98667.31;4969494;28;20456;-82
2022/09/14 05:51:34;;;;;;;15.27;2.20;;;;;;;37.21;14.97;98678.59;5020730;28;20029;-83
2022/09/14 05:54:08;;;;;;;15.82;2.25;;;;;;;37.32;14.55;98690.16;4987083;28;20446;-83
2022/09/14 05:56:34;;;;;;;11.52;2.42;;;;;;;37.40;15.08;98692.22;4990330;28;20083;-84
2022/09/14 05:58:59;;;;;;;17.48;2.47;;;;;;;37.43;14.56;98692.44;4986882;28;20057;-81
2022/09/14 06:01:31;;;;;;;13.77;2.75;;;;;;;37.52;14.63;98689.84;5023232;28;20048;-81
2022/09/14 06:03:59;;;;;;;14.35;3.30;;;;;;;37.51;14.62;98695.59;4991540;28;20552;-84
2022/09/14 06:06:24;;;;;;;18.13;3.00;;;;;;;37.53;14.68;98690.66;5004296;28;20087;-87
2022/09/14 06:08:51;;;;;;;8.38;3.08;;;;;;;37.57;14.53;98708.81;5004776;28;20037;-83
2022/09/14 06:11:18;;;;;;;18.15;3.33;;;;;;;37.50;14.87;98702.13;4986332;28;20030;-83
2022/09/14 06:13:45;;;;;;;13.13;3.60;;;;;;;37.51;14.87;98707.28;4972560;28;20061;-84
2022/09/14 06:16:15;;;;;;;11.55;3.03;;;;;;;37.62;14.41;98700.59;5005409;28;20091;-87
2022/09/14 06:18:42;;;;;;;9.25;2.50;;;;;;;37.64;14.49;98703.81;4971276;28;20099;-85
2022/09/14 06:21:08;;;;;;;12.20;2.50;;;;;;;37.61;14.56;98698.16;4969732;28;20050;-83
2022/09/14 06:23:35;;;;;;;10.45;2.53;;;;;;;37.68;14.84;98711.41;5025375;28;20041;-89
2022/09/14 06:26:03;;;;;;;17.90;2.70;;;;;;;37.64;14.73;98708.47;4989251;28;20077;-86
2022/09/14 06:28:28;;;;;;;8.95;2.17;;;;;;;37.60;14.63;98701.97;4977050;28;20037;-89
2022/09/14 06:30:54;;;;;;;7.20;2.30;;;;;;;37.62;14.40;98705.22;5000025;28;20042;-86
2022/09/14 06:33:20;;;;;;;8.43;2.35;;;;;;;37.56;14.75;98711.84;4998009;28;20408;-84
2022/09/14 06:35:55;;;;;;;7.60;2.50;;;;;;;37.53;14.75;98712.44;4983179;28;20072;-88
2022/09/14 06:38:21;;;;;;;12.73;2.65;;;;;;;37.55;14.35;98713.75;4999706;28;20487;-89
2022/09/14 06:40:55;;;;;;;11.43;2.92;;;;;;;37.64;14.53;98716.63;5003462;28;20033;-90
2022/09/14 06:43:24;;;;;;;8.60;2.83;;;;;;;37.68;14.41;98716.84;5005932;28;20056;-90
2022/09/14 06:46:02;;;;;;;10.95;3.13;;;;;;;37.71;14.22;98721.72;5024286;28;20048;-88
2022/09/14 06:48:28;;;;;;;12.85;2.83;;;;;;;37.76;14.01;98725.16;5011019;28;20060;-90
2022/09/14 06:50:54;;;;;;;11.18;2.97;;;;;;;37.82;13.82;98723.19;4990308;28;20546;-89
2022/09/14 06:53:20;;;;;;;16.15;3.03;;;;;;;37.85;14.15;98719.88;5038619;28;20037;-90
2022/09/14 06:55:45;;;;;;;13.02;3.10;;;;;;;37.80;14.04;98714.50;5002370;28;20038;-89
2022/09/14 06:58:11;;;;;;;15.63;3.08;;;;;;;37.78;13.93;98727.59;4967973;28;20026;-88
2022/09/14 07:00:36;;;;;;;20.60;3.50;;;;;;;37.84;13.71;98726.41;5017546;28;20033;-77
2022/09/14 07:03:02;;;;;;;17.95;3.92;;;;;;;37.88;14.12;98726.63;4999565;28;20421;-82
2022/09/14 07:05:29;;;;;;;11.05;3.20;;;;;;;37.90;13.98;98722.50;4982630;28;20042;-84
2022/09/14 07:07:55;;;;;;;;;;;;;;;37.84;13.94;98731.84;4984163;28;20030;-84
2022/09/14 07:10:20;;;;;;;20.13;3.90;;;;;;;37.97;13.76;98731.09;4998785;28;20008;-78
2022/09/14 07:12:47;;;;;;;17.98;4.07;;;;;;;38.08;14.00;98733.63;5018637;28;20037;-88
2022/09/14 07:15:13;;;;;;;17.35;4.55;;;;;;;38.10;14.43;98726.78;4983693;28;20132;-83
2022/09/14 07:17:38;;;;;;;15.40;4.03;;;;;;;38.17;13.60;98737.31;5017608;28;20457;-83
2022/09/14 07:20:06;;;;;;;20.35;3.63;;;;;;;38.11;13.94;98728.41;4986100;28;20029;-83
2022/09/14 07:22:35;;;;;;;18.25;3.97;;;;;;;38.15;13.84;98740.34;5019659;28;20045;-87
2022/09/14 07:25:01;;;;;;;13.82;3.90;;;;;;;38.23;13.60;98735.34;5001684;28;20021;-83
2022/09/14 07:27:26;;;;;;;12.30;2.70;;;;;;;38.29;13.77;98739.59;5028814;28;20539;-94
2022/09/14 07:29:52;;;;;;;4.60;2.15;;;;;;;38.36;13.51;98734.53;5120293;23;20116;-90
2022/09/14 07:32:18;;;;;;;8.43;2.45;;;;;;;38.44;14.00;98738.47;5020839;28;20037;-88
2022/09/14 07:34:43;;;;;;;15.30;2.40;;;;;;;38.50;13.68;98735.34;5018091;28;20036;-89
2022/09/14 07:37:09;;;;;;;13.68;2.42;;;;;;;38.52;13.71;98729.59;5018046;28;20041;-90
2022/09/14 07:39:34;;;;;;;11.05;2.63;;;;;;;38.55;13.67;98726.25;5050740;28;20206;-88
2022/09/14 07:42:01;;;;;;;10.85;2.22;;;;;;;38.50;13.55;98718.19;5091167;23;20525;-88
2022/09/14 07:44:27;;;;;;;10.60;2.70;;;;;;;38.59;13.37;98724.56;4977701;28;20034;-86
2022/09/14 07:46:52;;;;;;;13.00;2.70;;;;;;;38.72;13.52;98737.41;4948420;28;20379;-87
2022/09/14 07:49:18;;;;;;;11.85;2.63;;;;;;;38.75;13.45;98729.75;4995618;28;20486;-87
2022/09/14 07:51:44;;;;;;;12.93;2.67;;;;;;;38.76;13.54;98720.44;5005957;28;20034;-92
2022/09/14 07:54:11;;;;;;;11.85;2.53;;;;;;;38.82;13.59;98714.56;4967569;28;20097;-89
2022/09/14 07:56:36;;;;;;;9.40;2.72;;;;;;;38.85;13.75;98716.69;4979371;28;20033;-87
2022/09/14 07:59:03;;;;;;;10.43;3.13;;;;;;;38.94;13.79;98714.06;4962741;28;20125;-86
2022/09/14 08:05:27;;;;;;;15.65;3.60;;;;;;;38.84;13.69;98717.00;4995866;28;20060;-90
2022/09/14 08:07:54;;;;;;;11.18;2.92;;;;;;;38.93;13.71;98711.63;4964951;28;20521;-92
2022/09/14 08:10:19;;;;;;;10.57;2.72;;;;;;;38.96;13.61;98720.00;4947428;28;20117;-78
2022/09/14 08:12:49;;;;;;;8.55;2.75;;;;;;;39.07;13.87;98715.16;4945504;28;20034;-79
2022/09/14 08:15:15;;;;;;;12.95;2.90;;;;;;;39.10;13.71;98719.22;4977579;28;20030;-87
2022/09/14 08:17:41;;;;;;;10.50;2.53;;;;;;;39.15;13.60;98724.56;4979443;28;20034;-82
2022/09/14 08:20:07;;;;;;;8.52;2.70;;;;;;;39.23;13.42;98710.19;4993499;28;20069;-80
2022/09/14 08:22:32;;;;;;;7.57;2.20;;;;;;;39.30;13.33;98716.03;5010573;28;20505;-82
2022/09/14 08:24:58;;;;;;;9.90;2.53;;;;;;;39.31;13.33;98714.91;4996557;28;20123;-83
2022/09/14 08:27:24;;;;;;;6.88;2.13;;;;;;;39.30;13.39;98717.94;4964763;28;20489;-87
2022/09/14 08:29:50;;;;;;;4.20;2.25;;;;;;;39.31;13.17;98720.38;4998494;28;20038;-87
2022/09/14 08:32:16;;;;;;;9.85;2.42;;;;;;;39.31;13.47;98714.91;4981604;28;20038;-89
2022/09/14 08:34:42;;;;;;;12.57;2.40;;;;;;;39.18;13.36;98700.19;4988413;28;20125;-87
2022/09/14 08:37:09;;;;;;;5.82;2.10;;;;;;;39.31;13.27;98705.91;4963882;28;20033;-80
2022/09/14 08:39:35;;;;;;;13.43;2.30;;;;;;;39.20;13.40;98702.59;4980521;28;20046;-89
2022/09/14 08:42:02;;;;;;;6.82;1.80;;;;;;;39.29;13.56;98710.88;4980343;28;20116;-81
2022/09/14 08:44:39;;;;;;;6.03;1.83;;;;;;;39.26;13.28;98696.72;5012288;28;20018;-77
2022/09/14 08:47:05;;;;;;;;;;;;;;;39.11;13.35;98699.81;5013107;28;20553;-80
2022/09/14 08:49:45;;;;;;;4.80;1.80;;;;;;;39.15;13.21;98700.78;4995872;28;19910;-79
2022/09/14 08:52:42;;;;;;;3.50;1.90;;;;;;;39.11;13.37;98688.06;4996556;28;20041;-85
2022/09/14 08:55:13;;;;;;;3.88;1.63;;;;;;;39.03;13.26;98701.31;4997727;28;20512;-85
2022/09/14 08:57:51;;;;;;;3.20;1.40;;;;;;;39.01;13.34;98692.59;5013363;28;20036;-83
2022/09/14 09:00:20;;;;;;;7.25;1.50;;;;;;;39.03;13.66;98690.41;4996878;28;20413;-82
2022/09/14 09:03:23;;;;;;;10.02;1.80;;;;;;;39.05;14.10;98690.88;4979744;28;20053;-83
2022/09/14 09:05:58;;;;;;;4.45;1.35;;;;;;;39.01;14.03;98686.34;5011604;28;20486;-83
2022/09/14 09:08:23;;;;;;;4.70;1.70;;;;;;;38.97;13.93;98677.19;4995986;28;20034;-83
2022/09/14 09:10:49;;;;;;;4.65;1.40;;;;;;;39.01;13.89;98691.81;5012291;28;20088;-83
2022/09/14 09:13:17;;;;;;;5.80;1.20;;;;;;;38.89;13.21;98676.78;4995818;28;20168;-84
2022/09/14 09:15:51;;;;;;;3.58;1.17;;;;;;;38.81;13.53;98680.22;4979728;28;20034;-80
2022/09/14 09:18:31;;;;;;;5.05;1.33;;;;;;;38.60;13.58;98684.44;4978847;28;20413;-82
2022/09/14 09:21:18;;;;;;;5.40;1.20;;;;;;;38.29;13.77;98685.88;4994803;28;20032;-83
2022/09/14 09:23:44;;;;;;;4.05;1.20;;;;;;;38.08;13.77;98685.41;4963152;28;20041;-86
2022/09/14 09:26:24;;;;;;;3.05;1.20;;;;;;;38.00;14.09;98686.09;4994481;28;20026;-85
2022/09/14 09:29:36;;;;;;;6.15;1.30;;;;;;;37.97;14.14;98682.06;4994064;28;20026;-91
2022/09/14 09:32:02;;;;;;;8.05;1.30;;;;;;;37.94;14.31;98674.50;4933974;29;20502;-90
2022/09/14 09:34:28;;;;;;;3.53;1.00;;;;;;;37.82;14.27;98672.22;4915192;29;20036;-91
2022/09/14 09:36:59;;;;;;;1.80;0.90;;;;;;;37.78;14.39;98665.78;4899192;29;20075;-81
2022/09/14 09:39:25;;;;;;;5.85;1.23;;;;;;;37.72;14.72;98658.78;4918630;29;20211;-88
2022/09/14 09:42:02;;;;;;;4.70;0.93;;;;;;;37.55;14.56;98662.03;4917435;29;20126;-83
2022/09/14 09:44:27;;;;;;;2.70;1.00;;;;;;;37.32;14.39;98671.13;4891530;29;20504;-83
2022/09/14 09:46:58;;;;;;;2.20;1.00;;;;;;;37.26;14.43;98654.88;4914703;29;20031;-81
2022/09/14 09:49:29;;;;;;;5.88;1.05;;;;;;;37.17;14.45;98653.88;4884993;29;20533;-89
2022/09/14 09:51:55;;;;;;;4.35;1.00;;;;;;;36.88;14.60;98654.00;4921247;29;20043;-86
2022/09/14 09:54:27;;;;;;;3.88;0.98;;;;;;;36.80;14.84;98647.34;4875330;29;20160;-88
2022/09/14 09:57:01;;;;;;;2.15;1.10;;;;;;;36.73;14.68;98646.88;4912647;29;20070;-84
2022/09/14 09:59:34;;;;;;;2.30;1.00;;;;;;;36.63;14.71;98641.53;4953234;29;20035;-84
2022/09/14 10:02:24;;;;;;;1.83;1.02;;;;;;;36.36;14.86;98640.25;4928194;28;20038;-87
2022/09/14 10:04:57;;;;;;;4.43;1.00;;;;;;;36.06;14.58;98650.31;4984029;28;20036;-88
2022/09/14 10:07:23;;;;;;;4.95;1.00;;;;;;;35.73;15.04;98635.66;4965030;28;20113;-83
2022/09/14 10:10:05;;;;;;;1.55;0.98;;;;;;;35.50;15.98;98629.84;4947410;28;20133;-89
2022/09/14 10:12:30;;;;;;;3.25;1.45;;;;;;;35.30;18.81;98631.66;4978617;28;20106;-87
2022/09/14 10:15:15;;;;;;;3.60;1.52;;;;;;;34.92;18.55;98635.94;4981929;28;20562;-79
2022/09/14 10:17:54;;;;;;;5.72;1.50;;;;;;;34.68;17.57;98623.00;4961093;28;20063;-77
2022/09/14 10:20:23;;;;;;;2.78;1.20;;;;;;;34.51;17.29;98627.97;4978923;28;20441;-79
2022/09/14 10:22:50;;;;;;;4.30;1.17;;;;;;;34.27;17.26;98623.19;4959606;28;20058;-80
2022/09/14 10:25:16;;;;;;;3.35;1.23;;;;;;;34.04;17.26;98635.38;4963368;28;20030;-80
2022/09/14 10:27:54;;;;;;;1.65;0.95;;;;;;;33.98;17.73;98629.16;4987769;28;20060;-84
2022/09/14 10:30:27;;;;;;;2.92;0.90;;;;;;;33.78;16.42;98635.41;4990966;28;20030;-83
2022/09/14 10:33:03;;;;;;;2.45;0.98;;;;;;;33.80;17.11;98632.44;4975528;28;20034;-83
2022/09/14 10:35:49;;;;;;;2.33;1.00;;;;;;;33.83;17.78;98626.47;4975251;28;20034;-85
2022/09/14 10:38:33;;;;;;;7.03;0.93;;;;;;;33.83;17.82;98629.19;4991210;28;20070;-84
2022/09/14 10:41:12;;;;;;;5.03;1.08;;;;;;;33.75;17.15;98625.13;4943125;28;1491087;-83
2022/09/14 10:43:56;;;;;;;2.65;0.98;;;;;;;33.46;16.10;98622.13;4978784;28;20041;-82
2022/09/14 10:46:29;;;;;;;1.33;0.90;;;;;;;33.14;16.39;98613.13;4994864;28;20420;-82
2022/09/14 10:49:11;;;;;;;0.90;0.68;;;;;;;32.75;16.64;98623.59;4994995;28;20120;-83
2022/09/14 10:51:43;;;;;;;1.85;0.60;;;;;;;32.60;16.74;98618.91;4978648;28;20528;-81
2022/09/14 10:54:26;;;;;;;1.30;0.80;;;;;;;32.58;17.12;98612.97;5012266;28;20060;-82
2022/09/14 10:57:29;;;;;;;2.30;1.10;;;;;;;32.44;17.05;98604.53;4994370;28;20124;-83
2022/09/14 11:00:12;;;;;;;2.78;1.20;;;;;;;32.41;17.93;98603.16;5012708;28;20109;-83
2022/09/14 11:03:35;;;;;;;3.85;1.00;;;;;;;32.19;17.36;98607.94;4963524;28;20117;-83
2022/09/14 11:06:10;;;;;;;5.25;1.10;;;;;;;32.12;17.78;98604.63;4935565;29;20043;-83
2022/09/14 11:08:41;;;;;;;2.85;0.85;;;;;;;32.10;18.41;98594.94;4920106;29;20095;-84
2022/09/14 11:11:27;;;;;;;2.10;0.93;;;;;;;32.13;18.27;98596.28;4936097;29;20051;-83
2022/09/14 11:14:24;;;;;;;2.67;1.10;;;;;;;31.99;17.82;98590.53;4919802;29;20058;-82
2022/09/14 11:17:20;;;;;;;2.87;0.90;;;;;;;31.80;18.14;98600.94;4951913;29;20114;-82
2022/09/14 11:19:55;;;;;;;3.38;1.00;;;;;;;31.79;18.42;98601.19;4951531;29;20031;-81
2022/09/14 11:22:23;;;;;;;6.70;1.10;;;;;;;31.61;18.42;98592.41;4936475;29;20089;-82
2022/09/14 11:25:13;;;;;;;1.20;0.85;;;;;;;31.45;18.83;98593.31;4951623;29;20035;-84
2022/09/14 11:27:53;;;;;;;3.85;1.13;;;;;;;31.47;19.25;98593.88;4935626;29;20031;-81
2022/09/14 11:30:21;;;;;;;2.38;0.90;;;;;;;31.39;19.96;98595.16;4938601;29;20122;-83
2022/09/14 11:32:53;;;;;;;4.43;0.90;;;;;;;31.32;19.77;98594.56;4923199;29;20039;-82
2022/09/14 11:35:31;;;;;;;7.68;1.00;;;;;;;31.12;19.28;98589.78;4939135;29;20067;-82
2022/09/14 11:38:08;;;;;;;3.85;1.00;;;;;;;30.77;19.71;98588.34;5013062;28;20034;-81
2022/09/14 11:40:59;;;;;;;2.60;1.00;;;;;;;30.67;19.59;98584.47;4982005;28;20046;-81
2022/09/14 11:43:29;;;;;;;1.88;1.00;;;;;;;30.59;21.21;98578.72;4984358;28;20141;-78
2022/09/14 11:46:10;;;;;;;5.72;0.93;;;;;;;30.54;22.28;98570.59;5007655;28;20029;-79
2022/09/14 11:48:53;;;;;;;3.28;0.90;;;;;;;30.38;20.31;98559.63;4982403;28;20112;-76
2022/09/14 11:51:39;;;;;;;5.63;1.23;;;;;;;30.18;22.71;98560.16;4998028;28;20034;-77
2022/09/14 11:54:27;;;;;;;3.33;1.08;;;;;;;29.86;18.84;98554.59;4999755;28;20026;-75